Terminal Aerodrome Forecast
Issued by NWS Wilmington, OH

Current Version | Previous Version | Text Only | Print | Product List | Glossary Off
Versions: 1 2 3 4 5 6 7 8 9 10 11 12 13 14 15 16 17 18 19 20 21

000
FTUS41 KILN 241700
TAFILN
TAF
KILN 241737Z 2418/2518 21005KT P6SM SCT120 BKN250
     FM250100 14003KT P6SM OVC080
     FM250900 10007KT P6SM VCSH OVC060
     FM251600 10011KT P6SM -SHRA OVC040=

USA.gov is the U.S. government's official web portal to all federal, state and local government web resources and services.